sensor_id;sensor_type;location;lat;lon;timestamp;P1;durP1;ratioP1;P2;durP2;ratioP2
28266;SDS011;15525;45.568;5.448;2023-02-19T00:01:37;29.73;;;18.48;;
28266;SDS011;15525;45.568;5.448;2023-02-19T00:04:07;26.20;;;16.85;;
28266;SDS011;15525;45.568;5.448;2023-02-19T00:06:37;27.27;;;17.50;;
28266;SDS011;15525;45.568;5.448;2023-02-19T00:09:03;31.58;;;18.65;;
28266;SDS011;15525;45.568;5.448;2023-02-19T00:11:30;30.23;;;18.30;;
28266;SDS011;15525;45.568;5.448;2023-02-19T00:13:58;25.90;;;17.23;;
28266;SDS011;15525;45.568;5.448;2023-02-19T00:16:26;29.45;;;18.27;;
28266;SDS011;15525;45.568;5.448;2023-02-19T00:18:54;30.10;;;18.00;;
28266;SDS011;15525;45.568;5.448;2023-02-19T00:21:21;32.20;;;18.33;;
28266;SDS011;15525;45.568;5.448;2023-02-19T00:23:48;28.02;;;17.02;;
28266;SDS011;15525;45.568;5.448;2023-02-19T00:26:18;26.90;;;16.83;;
28266;SDS011;15525;45.568;5.448;2023-02-19T00:28:43;30.05;;;17.50;;
28266;SDS011;15525;45.568;5.448;2023-02-19T00:31:22;28.20;;;17.20;;
28266;SDS011;15525;45.568;5.448;2023-02-19T00:33:50;28.17;;;18.10;;
28266;SDS011;15525;45.568;5.448;2023-02-19T00:36:17;28.80;;;18.00;;
28266;SDS011;15525;45.568;5.448;2023-02-19T00:38:43;28.67;;;16.27;;
28266;SDS011;15525;45.568;5.448;2023-02-19T00:41:10;29.63;;;17.90;;
28266;SDS011;15525;45.568;5.448;2023-02-19T00:46:10;29.08;;;16.85;;
28266;SDS011;15525;45.568;5.448;2023-02-19T00:48:36;26.52;;;16.90;;
28266;SDS011;15525;45.568;5.448;2023-02-19T00:51:01;27.80;;;17.60;;
28266;SDS011;15525;45.568;5.448;2023-02-19T00:53:27;30.55;;;17.25;;
28266;SDS011;15525;45.568;5.448;2023-02-19T00:55:52;29.35;;;16.95;;
28266;SDS011;15525;45.568;5.448;2023-02-19T00:58:18;27.42;;;16.98;;
28266;SDS011;15525;45.568;5.448;2023-02-19T01:00:43;27.30;;;17.75;;
28266;SDS011;15525;45.568;5.448;2023-02-19T01:03:08;26.88;;;16.15;;
28266;SDS011;15525;45.568;5.448;2023-02-19T01:05:34;29.05;;;18.02;;
28266;SDS011;15525;45.568;5.448;2023-02-19T01:07:59;27.23;;;17.23;;
28266;SDS011;15525;45.568;5.448;2023-02-19T01:10:24;30.98;;;17.95;;
28266;SDS011;15525;45.568;5.448;2023-02-19T01:12:50;31.40;;;18.55;;
28266;SDS011;15525;45.568;5.448;2023-02-19T01:15:15;26.27;;;17.85;;
28266;SDS011;15525;45.568;5.448;2023-02-19T01:17:41;27.65;;;17.92;;
28266;SDS011;15525;45.568;5.448;2023-02-19T01:20:06;28.20;;;17.60;;
28266;SDS011;15525;45.568;5.448;2023-02-19T01:22:32;26.67;;;17.27;;
28266;SDS011;15525;45.568;5.448;2023-02-19T01:24:57;25.30;;;16.73;;
28266;SDS011;15525;45.568;5.448;2023-02-19T01:27:23;26.67;;;16.25;;
28266;SDS011;15525;45.568;5.448;2023-02-19T01:29:48;28.30;;;17.13;;
28266;SDS011;15525;45.568;5.448;2023-02-19T01:32:14;28.00;;;17.50;;
28266;SDS011;15525;45.568;5.448;2023-02-19T01:34:39;27.27;;;17.60;;
28266;SDS011;15525;45.568;5.448;2023-02-19T01:37:04;25.98;;;17.17;;
28266;SDS011;15525;45.568;5.448;2023-02-19T01:39:32;25.55;;;17.08;;
28266;SDS011;15525;45.568;5.448;2023-02-19T01:41:57;26.92;;;17.23;;
28266;SDS011;15525;45.568;5.448;2023-02-19T01:46:48;28.52;;;17.00;;
28266;SDS011;15525;45.568;5.448;2023-02-19T01:49:22;25.08;;;16.85;;
28266;SDS011;15525;45.568;5.448;2023-02-19T01:51:53;26.30;;;16.85;;
28266;SDS011;15525;45.568;5.448;2023-02-19T01:54:24;24.10;;;16.20;;
28266;SDS011;15525;45.568;5.448;2023-02-19T01:56:52;24.95;;;16.55;;
28266;SDS011;15525;45.568;5.448;2023-02-19T01:59:19;26.80;;;17.07;;
28266;SDS011;15525;45.568;5.448;2023-02-19T02:01:45;23.40;;;15.20;;
28266;SDS011;15525;45.568;5.448;2023-02-19T02:04:11;24.00;;;14.98;;
28266;SDS011;15525;45.568;5.448;2023-02-19T02:06:41;25.27;;;16.20;;
28266;SDS011;15525;45.568;5.448;2023-02-19T02:09:18;25.15;;;16.13;;
28266;SDS011;15525;45.568;5.448;2023-02-19T02:12:03;26.55;;;16.27;;
28266;SDS011;15525;45.568;5.448;2023-02-19T02:14:30;27.08;;;16.83;;
28266;SDS011;15525;45.568;5.448;2023-02-19T02:22:45;27.38;;;17.77;;
28266;SDS011;15525;45.568;5.448;2023-02-19T02:30:58;25.88;;;17.25;;
28266;SDS011;15525;45.568;5.448;2023-02-19T02:33:31;28.63;;;18.33;;
28266;SDS011;15525;45.568;5.448;2023-02-19T02:36:08;27.70;;;18.10;;
28266;SDS011;15525;45.568;5.448;2023-02-19T02:38:36;28.17;;;18.20;;
28266;SDS011;15525;45.568;5.448;2023-02-19T02:41:04;31.13;;;19.23;;
28266;SDS011;15525;45.568;5.448;2023-02-19T02:43:30;29.70;;;18.50;;
28266;SDS011;15525;45.568;5.448;2023-02-19T02:45:56;31.55;;;18.85;;
28266;SDS011;15525;45.568;5.448;2023-02-19T02:53:27;29.25;;;18.70;;
28266;SDS011;15525;45.568;5.448;2023-02-19T02:56:15;30.45;;;18.10;;
28266;SDS011;15525;45.568;5.448;2023-02-19T02:58:42;28.42;;;18.30;;
28266;SDS011;15525;45.568;5.448;2023-02-19T03:01:11;28.30;;;17.58;;
28266;SDS011;15525;45.568;5.448;2023-02-19T03:04:02;27.55;;;17.35;;
28266;SDS011;15525;45.568;5.448;2023-02-19T03:06:33;27.50;;;17.98;;
28266;SDS011;15525;45.568;5.448;2023-02-19T03:09:12;29.02;;;17.83;;
28266;SDS011;15525;45.568;5.448;2023-02-19T03:11:54;27.98;;;17.63;;
28266;SDS011;15525;45.568;5.448;2023-02-19T03:14:43;27.52;;;17.52;;
28266;SDS011;15525;45.568;5.448;2023-02-19T03:17:43;30.23;;;17.77;;
28266;SDS011;15525;45.568;5.448;2023-02-19T03:20:33;27.05;;;16.85;;
28266;SDS011;15525;45.568;5.448;2023-02-19T03:23:01;25.80;;;16.80;;
28266;SDS011;15525;45.568;5.448;2023-02-19T03:25:29;26.98;;;17.50;;
28266;SDS011;15525;45.568;5.448;2023-02-19T03:28:15;26.88;;;17.92;;
28266;SDS011;15525;45.568;5.448;2023-02-19T03:30:46;30.15;;;18.10;;
28266;SDS011;15525;45.568;5.448;2023-02-19T03:33:21;28.17;;;18.15;;
28266;SDS011;15525;45.568;5.448;2023-02-19T03:35:55;26.48;;;15.90;;
28266;SDS011;15525;45.568;5.448;2023-02-19T03:40:59;26.05;;;16.63;;
28266;SDS011;15525;45.568;5.448;2023-02-19T03:49:19;25.05;;;15.48;;
28266;SDS011;15525;45.568;5.448;2023-02-19T03:51:56;25.60;;;15.98;;
28266;SDS011;15525;45.568;5.448;2023-02-19T03:54:36;25.30;;;15.93;;
28266;SDS011;15525;45.568;5.448;2023-02-19T03:57:52;27.35;;;16.77;;
28266;SDS011;15525;45.568;5.448;2023-02-19T04:00:16;24.63;;;15.27;;
28266;SDS011;15525;45.568;5.448;2023-02-19T04:05:18;28.23;;;16.95;;
28266;SDS011;15525;45.568;5.448;2023-02-19T04:07:48;23.80;;;15.77;;
28266;SDS011;15525;45.568;5.448;2023-02-19T04:10:17;27.58;;;16.58;;
28266;SDS011;15525;45.568;5.448;2023-02-19T04:12:44;25.92;;;16.45;;
28266;SDS011;15525;45.568;5.448;2023-02-19T04:15:15;25.70;;;16.33;;
28266;SDS011;15525;45.568;5.448;2023-02-19T04:17:56;24.65;;;15.98;;
28266;SDS011;15525;45.568;5.448;2023-02-19T04:20:25;25.42;;;17.10;;
28266;SDS011;15525;45.568;5.448;2023-02-19T04:22:54;27.10;;;16.80;;
28266;SDS011;15525;45.568;5.448;2023-02-19T04:25:21;27.60;;;17.65;;
28266;SDS011;15525;45.568;5.448;2023-02-19T04:27:49;25.42;;;17.13;;
28266;SDS011;15525;45.568;5.448;2023-02-19T04:30:15;25.00;;;16.33;;
28266;SDS011;15525;45.568;5.448;2023-02-19T04:32:41;29.33;;;17.63;;
28266;SDS011;15525;45.568;5.448;2023-02-19T04:35:06;27.23;;;17.08;;
28266;SDS011;15525;45.568;5.448;2023-02-19T04:37:32;25.00;;;15.85;;
28266;SDS011;15525;45.568;5.448;2023-02-19T04:39:57;28.83;;;17.05;;
28266;SDS011;15525;45.568;5.448;2023-02-19T04:42:23;26.08;;;17.23;;
28266;SDS011;15525;45.568;5.448;2023-02-19T04:44:48;25.33;;;15.60;;
28266;SDS011;15525;45.568;5.448;2023-02-19T04:47:13;27.80;;;16.67;;
28266;SDS011;15525;45.568;5.448;2023-02-19T04:49:41;28.30;;;16.60;;
28266;SDS011;15525;45.568;5.448;2023-02-19T04:52:07;24.83;;;16.30;;
28266;SDS011;15525;45.568;5.448;2023-02-19T04:54:33;27.60;;;15.48;;
28266;SDS011;15525;45.568;5.448;2023-02-19T04:56:58;26.08;;;16.23;;
28266;SDS011;15525;45.568;5.448;2023-02-19T04:59:24;24.40;;;15.82;;
28266;SDS011;15525;45.568;5.448;2023-02-19T05:01:49;22.88;;;14.30;;
28266;SDS011;15525;45.568;5.448;2023-02-19T05:04:14;26.33;;;16.75;;
28266;SDS011;15525;45.568;5.448;2023-02-19T05:06:40;26.30;;;15.65;;
28266;SDS011;15525;45.568;5.448;2023-02-19T05:09:05;27.05;;;16.67;;
28266;SDS011;15525;45.568;5.448;2023-02-19T05:11:31;26.95;;;16.48;;
28266;SDS011;15525;45.568;5.448;2023-02-19T05:13:56;25.55;;;15.07;;
28266;SDS011;15525;45.568;5.448;2023-02-19T05:16:22;29.05;;;16.55;;
28266;SDS011;15525;45.568;5.448;2023-02-19T05:18:47;24.80;;;15.13;;
28266;SDS011;15525;45.568;5.448;2023-02-19T05:21:13;26.35;;;16.40;;
28266;SDS011;15525;45.568;5.448;2023-02-19T05:23:39;25.25;;;15.25;;
28266;SDS011;15525;45.568;5.448;2023-02-19T05:26:09;26.58;;;16.20;;
28266;SDS011;15525;45.568;5.448;2023-02-19T05:28:37;25.88;;;16.10;;
28266;SDS011;15525;45.568;5.448;2023-02-19T05:31:03;27.55;;;16.27;;
28266;SDS011;15525;45.568;5.448;2023-02-19T05:33:32;25.20;;;15.93;;
28266;SDS011;15525;45.568;5.448;2023-02-19T05:35:59;27.45;;;16.95;;
28266;SDS011;15525;45.568;5.448;2023-02-19T05:38:29;26.33;;;16.02;;
28266;SDS011;15525;45.568;5.448;2023-02-19T05:40:55;28.83;;;16.75;;
28266;SDS011;15525;45.568;5.448;2023-02-19T05:43:30;25.00;;;16.02;;
28266;SDS011;15525;45.568;5.448;2023-02-19T05:45:57;28.60;;;17.38;;
28266;SDS011;15525;45.568;5.448;2023-02-19T05:48:22;31.20;;;17.60;;
28266;SDS011;15525;45.568;5.448;2023-02-19T05:50:48;29.98;;;17.63;;
28266;SDS011;15525;45.568;5.448;2023-02-19T05:53:13;27.60;;;16.70;;
28266;SDS011;15525;45.568;5.448;2023-02-19T05:55:38;26.95;;;16.23;;
28266;SDS011;15525;45.568;5.448;2023-02-19T05:58:04;28.88;;;15.88;;
28266;SDS011;15525;45.568;5.448;2023-02-19T06:00:31;25.95;;;16.55;;
28266;SDS011;15525;45.568;5.448;2023-02-19T06:02:57;29.30;;;16.55;;
28266;SDS011;15525;45.568;5.448;2023-02-19T06:05:23;31.15;;;18.73;;
28266;SDS011;15525;45.568;5.448;2023-02-19T06:07:48;30.33;;;18.20;;
28266;SDS011;15525;45.568;5.448;2023-02-19T06:10:16;30.80;;;18.02;;
28266;SDS011;15525;45.568;5.448;2023-02-19T06:12:42;30.67;;;18.10;;
28266;SDS011;15525;45.568;5.448;2023-02-19T06:15:08;32.03;;;18.42;;
28266;SDS011;15525;45.568;5.448;2023-02-19T06:17:33;31.52;;;19.42;;
28266;SDS011;15525;45.568;5.448;2023-02-19T06:19:59;31.60;;;17.55;;
28266;SDS011;15525;45.568;5.448;2023-02-19T06:22:25;28.95;;;17.58;;
28266;SDS011;15525;45.568;5.448;2023-02-19T06:24:51;30.35;;;18.25;;
28266;SDS011;15525;45.568;5.448;2023-02-19T06:27:16;34.28;;;20.02;;
28266;SDS011;15525;45.568;5.448;2023-02-19T06:29:42;33.00;;;19.17;;
28266;SDS011;15525;45.568;5.448;2023-02-19T06:32:07;33.10;;;19.30;;
28266;SDS011;15525;45.568;5.448;2023-02-19T06:34:33;32.80;;;19.33;;
28266;SDS011;15525;45.568;5.448;2023-02-19T06:36:59;29.75;;;17.50;;
28266;SDS011;15525;45.568;5.448;2023-02-19T06:39:25;31.05;;;17.95;;
28266;SDS011;15525;45.568;5.448;2023-02-19T06:41:54;28.98;;;18.23;;
28266;SDS011;15525;45.568;5.448;2023-02-19T06:44:21;30.67;;;17.92;;
28266;SDS011;15525;45.568;5.448;2023-02-19T06:46:46;27.20;;;16.52;;
28266;SDS011;15525;45.568;5.448;2023-02-19T06:49:12;28.83;;;17.70;;
28266;SDS011;15525;45.568;5.448;2023-02-19T06:51:37;31.10;;;19.40;;
28266;SDS011;15525;45.568;5.448;2023-02-19T06:54:03;35.67;;;19.42;;
28266;SDS011;15525;45.568;5.448;2023-02-19T06:56:35;37.10;;;19.70;;
28266;SDS011;15525;45.568;5.448;2023-02-19T06:59:05;31.63;;;18.98;;
28266;SDS011;15525;45.568;5.448;2023-02-19T07:01:35;32.90;;;19.30;;
28266;SDS011;15525;45.568;5.448;2023-02-19T07:04:02;33.65;;;20.35;;
28266;SDS011;15525;45.568;5.448;2023-02-19T07:06:28;36.92;;;20.15;;
28266;SDS011;15525;45.568;5.448;2023-02-19T07:08:55;36.47;;;20.50;;
28266;SDS011;15525;45.568;5.448;2023-02-19T07:11:21;33.83;;;19.90;;
28266;SDS011;15525;45.568;5.448;2023-02-19T07:13:47;31.75;;;19.42;;
28266;SDS011;15525;45.568;5.448;2023-02-19T07:16:21;31.25;;;18.15;;
28266;SDS011;15525;45.568;5.448;2023-02-19T07:18:47;30.40;;;18.33;;
28266;SDS011;15525;45.568;5.448;2023-02-19T07:21:13;33.40;;;19.25;;
28266;SDS011;15525;45.568;5.448;2023-02-19T07:23:40;32.58;;;19.25;;
28266;SDS011;15525;45.568;5.448;2023-02-19T07:26:13;38.30;;;22.73;;
28266;SDS011;15525;45.568;5.448;2023-02-19T07:28:41;49.08;;;27.75;;
28266;SDS011;15525;45.568;5.448;2023-02-19T07:31:08;44.42;;;25.85;;
28266;SDS011;15525;45.568;5.448;2023-02-19T07:33:34;41.33;;;24.80;;
28266;SDS011;15525;45.568;5.448;2023-02-19T07:35:59;35.72;;;22.15;;
28266;SDS011;15525;45.568;5.448;2023-02-19T07:38:25;33.95;;;20.55;;
28266;SDS011;15525;45.568;5.448;2023-02-19T07:40:54;39.67;;;21.67;;
28266;SDS011;15525;45.568;5.448;2023-02-19T07:43:22;33.50;;;21.10;;
28266;SDS011;15525;45.568;5.448;2023-02-19T07:45:48;35.45;;;20.85;;
28266;SDS011;15525;45.568;5.448;2023-02-19T07:48:14;35.72;;;21.42;;
28266;SDS011;15525;45.568;5.448;2023-02-19T07:50:40;36.80;;;20.67;;
28266;SDS011;15525;45.568;5.448;2023-02-19T07:53:06;35.85;;;21.83;;
28266;SDS011;15525;45.568;5.448;2023-02-19T07:55:31;37.95;;;22.88;;
28266;SDS011;15525;45.568;5.448;2023-02-19T07:57:58;40.65;;;24.23;;
28266;SDS011;15525;45.568;5.448;2023-02-19T08:00:24;43.03;;;26.63;;
28266;SDS011;15525;45.568;5.448;2023-02-19T08:02:51;42.80;;;26.33;;
28266;SDS011;15525;45.568;5.448;2023-02-19T08:05:26;39.85;;;23.20;;
28266;SDS011;15525;45.568;5.448;2023-02-19T08:07:52;38.22;;;22.73;;
28266;SDS011;15525;45.568;5.448;2023-02-19T08:10:17;38.70;;;24.05;;
28266;SDS011;15525;45.568;5.448;2023-02-19T08:15:45;38.35;;;23.73;;
28266;SDS011;15525;45.568;5.448;2023-02-19T08:18:11;41.13;;;24.45;;
28266;SDS011;15525;45.568;5.448;2023-02-19T08:20:38;39.45;;;24.48;;
28266;SDS011;15525;45.568;5.448;2023-02-19T08:23:04;41.97;;;24.67;;
28266;SDS011;15525;45.568;5.448;2023-02-19T08:25:30;44.50;;;27.98;;
28266;SDS011;15525;45.568;5.448;2023-02-19T08:27:55;47.47;;;27.52;;
28266;SDS011;15525;45.568;5.448;2023-02-19T08:30:21;40.30;;;26.15;;
28266;SDS011;15525;45.568;5.448;2023-02-19T08:32:46;47.38;;;28.30;;
28266;SDS011;15525;45.568;5.448;2023-02-19T08:35:12;49.22;;;29.20;;
28266;SDS011;15525;45.568;5.448;2023-02-19T08:37:37;58.00;;;32.92;;
28266;SDS011;15525;45.568;5.448;2023-02-19T08:40:03;51.30;;;31.65;;
28266;SDS011;15525;45.568;5.448;2023-02-19T08:42:29;49.05;;;30.17;;
28266;SDS011;15525;45.568;5.448;2023-02-19T08:44:54;50.08;;;30.42;;
28266;SDS011;15525;45.568;5.448;2023-02-19T08:47:20;47.10;;;28.98;;
28266;SDS011;15525;45.568;5.448;2023-02-19T08:49:45;48.33;;;28.55;;
28266;SDS011;15525;45.568;5.448;2023-02-19T08:52:11;43.75;;;27.23;;
28266;SDS011;15525;45.568;5.448;2023-02-19T08:54:36;42.40;;;27.15;;
28266;SDS011;15525;45.568;5.448;2023-02-19T08:57:01;48.05;;;28.45;;
28266;SDS011;15525;45.568;5.448;2023-02-19T08:59:29;45.13;;;28.55;;
28266;SDS011;15525;45.568;5.448;2023-02-19T09:01:54;49.80;;;29.88;;
28266;SDS011;15525;45.568;5.448;2023-02-19T09:04:20;52.75;;;31.05;;
28266;SDS011;15525;45.568;5.448;2023-02-19T09:06:45;48.85;;;30.38;;
28266;SDS011;15525;45.568;5.448;2023-02-19T09:09:11;41.53;;;27.95;;
28266;SDS011;15525;45.568;5.448;2023-02-19T09:11:39;43.75;;;26.83;;
28266;SDS011;15525;45.568;5.448;2023-02-19T09:14:05;42.65;;;27.65;;
28266;SDS011;15525;45.568;5.448;2023-02-19T09:16:32;46.70;;;27.25;;
28266;SDS011;15525;45.568;5.448;2023-02-19T09:18:58;46.17;;;28.02;;
28266;SDS011;15525;45.568;5.448;2023-02-19T09:21:23;43.42;;;27.67;;
28266;SDS011;15525;45.568;5.448;2023-02-19T09:23:49;45.50;;;28.20;;
28266;SDS011;15525;45.568;5.448;2023-02-19T09:26:14;41.10;;;26.17;;
28266;SDS011;15525;45.568;5.448;2023-02-19T09:28:40;42.38;;;26.25;;
28266;SDS011;15525;45.568;5.448;2023-02-19T09:31:14;41.78;;;26.23;;
28266;SDS011;15525;45.568;5.448;2023-02-19T09:33:44;43.25;;;26.42;;
28266;SDS011;15525;45.568;5.448;2023-02-19T09:36:11;41.80;;;25.83;;
28266;SDS011;15525;45.568;5.448;2023-02-19T09:38:37;37.65;;;25.15;;
28266;SDS011;15525;45.568;5.448;2023-02-19T09:41:07;38.90;;;25.52;;
28266;SDS011;15525;45.568;5.448;2023-02-19T09:43:38;40.83;;;25.73;;
28266;SDS011;15525;45.568;5.448;2023-02-19T09:46:23;40.85;;;26.40;;
28266;SDS011;15525;45.568;5.448;2023-02-19T09:48:52;39.55;;;25.50;;
28266;SDS011;15525;45.568;5.448;2023-02-19T09:51:20;41.50;;;26.27;;
28266;SDS011;15525;45.568;5.448;2023-02-19T09:53:48;42.63;;;25.77;;
28266;SDS011;15525;45.568;5.448;2023-02-19T09:56:16;36.88;;;23.83;;
28266;SDS011;15525;45.568;5.448;2023-02-19T09:58:52;38.38;;;23.48;;
28266;SDS011;15525;45.568;5.448;2023-02-19T10:01:19;36.40;;;22.83;;
28266;SDS011;15525;45.568;5.448;2023-02-19T10:03:48;34.92;;;21.70;;
28266;SDS011;15525;45.568;5.448;2023-02-19T10:08:45;31.52;;;20.50;;
28266;SDS011;15525;45.568;5.448;2023-02-19T10:11:12;26.30;;;18.38;;
28266;SDS011;15525;45.568;5.448;2023-02-19T10:14:03;11.43;;;7.95;;
28266;SDS011;15525;45.568;5.448;2023-02-19T10:16:34;12.75;;;8.68;;
28266;SDS011;15525;45.568;5.448;2023-02-19T10:19:05;11.70;;;7.03;;
28266;SDS011;15525;45.568;5.448;2023-02-19T10:21:34;6.85;;;5.00;;
28266;SDS011;15525;45.568;5.448;2023-02-19T10:24:01;8.82;;;4.88;;
28266;SDS011;15525;45.568;5.448;2023-02-19T10:26:30;6.05;;;4.57;;
28266;SDS011;15525;45.568;5.448;2023-02-19T10:29:02;7.53;;;4.85;;
28266;SDS011;15525;45.568;5.448;2023-02-19T10:31:31;6.20;;;4.93;;
28266;SDS011;15525;45.568;5.448;2023-02-19T10:33:58;6.95;;;5.03;;
28266;SDS011;15525;45.568;5.448;2023-02-19T10:36:32;7.07;;;5.00;;
28266;SDS011;15525;45.568;5.448;2023-02-19T10:39:05;7.80;;;5.78;;
28266;SDS011;15525;45.568;5.448;2023-02-19T10:41:52;7.20;;;4.80;;
28266;SDS011;15525;45.568;5.448;2023-02-19T10:44:21;6.15;;;4.90;;
28266;SDS011;15525;45.568;5.448;2023-02-19T10:46:51;6.43;;;4.60;;
28266;SDS011;15525;45.568;5.448;2023-02-19T10:52:00;8.40;;;5.57;;
28266;SDS011;15525;45.568;5.448;2023-02-19T10:54:41;10.60;;;7.03;;
28266;SDS011;15525;45.568;5.448;2023-02-19T11:00:23;6.78;;;5.18;;
28266;SDS011;15525;45.568;5.448;2023-02-19T11:02:41;7.45;;;5.60;;
28266;SDS011;15525;45.568;5.448;2023-02-19T11:08:15;7.90;;;6.18;;
28266;SDS011;15525;45.568;5.448;2023-02-19T11:10:38;8.48;;;5.40;;
28266;SDS011;15525;45.568;5.448;2023-02-19T11:13:06;4.43;;;3.72;;
28266;SDS011;15525;45.568;5.448;2023-02-19T11:15:39;5.32;;;3.80;;
28266;SDS011;15525;45.568;5.448;2023-02-19T11:23:19;6.07;;;4.00;;
28266;SDS011;15525;45.568;5.448;2023-02-19T11:25:49;5.30;;;3.70;;
28266;SDS011;15525;45.568;5.448;2023-02-19T11:30:55;4.82;;;3.30;;
28266;SDS011;15525;45.568;5.448;2023-02-19T11:38:51;4.65;;;3.65;;
28266;SDS011;15525;45.568;5.448;2023-02-19T11:45:21;5.53;;;4.38;;
28266;SDS011;15525;45.568;5.448;2023-02-19T11:50:26;5.88;;;4.50;;
28266;SDS011;15525;45.568;5.448;2023-02-19T12:01:22;6.63;;;4.90;;
28266;SDS011;15525;45.568;5.448;2023-02-19T12:04:07;7.07;;;4.82;;
28266;SDS011;15525;45.568;5.448;2023-02-19T12:06:52;6.15;;;5.18;;
28266;SDS011;15525;45.568;5.448;2023-02-19T12:09:41;10.35;;;5.80;;
28266;SDS011;15525;45.568;5.448;2023-02-19T12:18:21;5.57;;;4.65;;
28266;SDS011;15525;45.568;5.448;2023-02-19T12:32:25;8.43;;;5.50;;
28266;SDS011;15525;45.568;5.448;2023-02-19T12:45:41;4.93;;;4.10;;
28266;SDS011;15525;45.568;5.448;2023-02-19T12:50:34;5.13;;;4.07;;
28266;SDS011;15525;45.568;5.448;2023-02-19T12:55:52;5.78;;;4.32;;
28266;SDS011;15525;45.568;5.448;2023-02-19T12:58:30;4.50;;;3.78;;
28266;SDS011;15525;45.568;5.448;2023-02-19T13:01:02;6.35;;;4.25;;
28266;SDS011;15525;45.568;5.448;2023-02-19T13:03:33;5.40;;;4.03;;
28266;SDS011;15525;45.568;5.448;2023-02-19T13:09:01;6.50;;;4.13;;
28266;SDS011;15525;45.568;5.448;2023-02-19T13:11:40;5.15;;;3.30;;
28266;SDS011;15525;45.568;5.448;2023-02-19T13:14:25;5.28;;;3.58;;
28266;SDS011;15525;45.568;5.448;2023-02-19T13:16:56;4.43;;;3.35;;
28266;SDS011;15525;45.568;5.448;2023-02-19T13:19:27;4.50;;;3.40;;
28266;SDS011;15525;45.568;5.448;2023-02-19T13:21:56;4.93;;;3.47;;
28266;SDS011;15525;45.568;5.448;2023-02-19T13:24:54;6.15;;;4.00;;
28266;SDS011;15525;45.568;5.448;2023-02-19T13:27:41;5.82;;;4.20;;
28266;SDS011;15525;45.568;5.448;2023-02-19T13:30:25;6.28;;;4.47;;
28266;SDS011;15525;45.568;5.448;2023-02-19T13:33:20;6.95;;;4.32;;
28266;SDS011;15525;45.568;5.448;2023-02-19T13:35:58;5.22;;;3.80;;
28266;SDS011;15525;45.568;5.448;2023-02-19T13:38:31;5.22;;;3.58;;
28266;SDS011;15525;45.568;5.448;2023-02-19T13:40:58;4.78;;;3.80;;
28266;SDS011;15525;45.568;5.448;2023-02-19T13:43:25;5.18;;;3.85;;
28266;SDS011;15525;45.568;5.448;2023-02-19T13:45:58;4.82;;;3.78;;
28266;SDS011;15525;45.568;5.448;2023-02-19T13:48:36;7.00;;;4.35;;
28266;SDS011;15525;45.568;5.448;2023-02-19T13:58:58;7.82;;;5.00;;
28266;SDS011;15525;45.568;5.448;2023-02-19T14:04:17;5.53;;;4.07;;
28266;SDS011;15525;45.568;5.448;2023-02-19T14:07:20;5.47;;;4.45;;
28266;SDS011;15525;45.568;5.448;2023-02-19T14:14:46;6.28;;;4.55;;
28266;SDS011;15525;45.568;5.448;2023-02-19T14:17:36;9.63;;;4.72;;
28266;SDS011;15525;45.568;5.448;2023-02-19T14:27:51;5.45;;;4.07;;
28266;SDS011;15525;45.568;5.448;2023-02-19T14:30:18;7.57;;;3.88;;
28266;SDS011;15525;45.568;5.448;2023-02-19T14:32:46;4.50;;;3.58;;
28266;SDS011;15525;45.568;5.448;2023-02-19T14:35:18;4.45;;;3.50;;
28266;SDS011;15525;45.568;5.448;2023-02-19T14:37:46;4.40;;;3.40;;
28266;SDS011;15525;45.568;5.448;2023-02-19T14:40:17;4.25;;;3.47;;
28266;SDS011;15525;45.568;5.448;2023-02-19T14:42:47;4.05;;;3.10;;
28266;SDS011;15525;45.568;5.448;2023-02-19T14:45:15;4.00;;;3.00;;
28266;SDS011;15525;45.568;5.448;2023-02-19T14:47:43;3.80;;;2.60;;
28266;SDS011;15525;45.568;5.448;2023-02-19T14:50:12;3.67;;;2.70;;
28266;SDS011;15525;45.568;5.448;2023-02-19T14:52:48;3.30;;;2.90;;
28266;SDS011;15525;45.568;5.448;2023-02-19T14:55:22;3.25;;;2.63;;
28266;SDS011;15525;45.568;5.448;2023-02-19T14:57:53;4.13;;;3.00;;
28266;SDS011;15525;45.568;5.448;2023-02-19T15:02:46;2.97;;;2.40;;
28266;SDS011;15525;45.568;5.448;2023-02-19T15:05:17;2.90;;;2.40;;
28266;SDS011;15525;45.568;5.448;2023-02-19T15:07:47;3.33;;;3.00;;
28266;SDS011;15525;45.568;5.448;2023-02-19T15:10:13;2.75;;;1.80;;
28266;SDS011;15525;45.568;5.448;2023-02-19T15:15:29;3.03;;;2.30;;
28266;SDS011;15525;45.568;5.448;2023-02-19T15:17:57;3.35;;;2.17;;
28266;SDS011;15525;45.568;5.448;2023-02-19T15:20:25;2.72;;;2.25;;
28266;SDS011;15525;45.568;5.448;2023-02-19T15:22:53;2.92;;;1.90;;
28266;SDS011;15525;45.568;5.448;2023-02-19T15:25:21;3.67;;;2.35;;
28266;SDS011;15525;45.568;5.448;2023-02-19T15:27:48;3.60;;;2.40;;
28266;SDS011;15525;45.568;5.448;2023-02-19T15:30:19;3.08;;;2.30;;
28266;SDS011;15525;45.568;5.448;2023-02-19T15:32:52;3.58;;;2.90;;
28266;SDS011;15525;45.568;5.448;2023-02-19T15:35:19;4.00;;;2.63;;
28266;SDS011;15525;45.568;5.448;2023-02-19T15:37:46;3.70;;;2.83;;
28266;SDS011;15525;45.568;5.448;2023-02-19T15:40:12;4.65;;;3.10;;
28266;SDS011;15525;45.568;5.448;2023-02-19T15:42:39;4.03;;;3.60;;
28266;SDS011;15525;45.568;5.448;2023-02-19T15:45:15;3.78;;;2.50;;
28266;SDS011;15525;45.568;5.448;2023-02-19T15:48:20;3.42;;;2.90;;
28266;SDS011;15525;45.568;5.448;2023-02-19T15:50:44;5.03;;;3.75;;
28266;SDS011;15525;45.568;5.448;2023-02-19T15:53:14;4.32;;;2.78;;
28266;SDS011;15525;45.568;5.448;2023-02-19T15:55:44;4.00;;;3.10;;
28266;SDS011;15525;45.568;5.448;2023-02-19T16:01:21;4.38;;;3.42;;
28266;SDS011;15525;45.568;5.448;2023-02-19T16:03:49;3.75;;;2.78;;
28266;SDS011;15525;45.568;5.448;2023-02-19T16:06:18;4.50;;;3.15;;
28266;SDS011;15525;45.568;5.448;2023-02-19T16:08:45;3.72;;;2.90;;
28266;SDS011;15525;45.568;5.448;2023-02-19T16:14:15;4.35;;;3.50;;
28266;SDS011;15525;45.568;5.448;2023-02-19T16:16:47;4.72;;;3.78;;
28266;SDS011;15525;45.568;5.448;2023-02-19T16:19:20;8.20;;;5.18;;
28266;SDS011;15525;45.568;5.448;2023-02-19T16:21:47;6.03;;;3.80;;
28266;SDS011;15525;45.568;5.448;2023-02-19T16:24:30;3.90;;;2.80;;
28266;SDS011;15525;45.568;5.448;2023-02-19T16:26:59;3.78;;;2.92;;
28266;SDS011;15525;45.568;5.448;2023-02-19T16:29:26;7.22;;;4.30;;
28266;SDS011;15525;45.568;5.448;2023-02-19T16:31:55;5.43;;;4.35;;
28266;SDS011;15525;45.568;5.448;2023-02-19T16:34:42;7.82;;;5.55;;
28266;SDS011;15525;45.568;5.448;2023-02-19T16:44:58;5.82;;;3.15;;
28266;SDS011;15525;45.568;5.448;2023-02-19T16:47:25;4.07;;;3.28;;
28266;SDS011;15525;45.568;5.448;2023-02-19T16:49:56;3.65;;;3.25;;
28266;SDS011;15525;45.568;5.448;2023-02-19T16:52:24;4.60;;;3.40;;
28266;SDS011;15525;45.568;5.448;2023-02-19T16:54:49;4.53;;;3.55;;
28266;SDS011;15525;45.568;5.448;2023-02-19T16:57:15;6.55;;;3.60;;
28266;SDS011;15525;45.568;5.448;2023-02-19T16:59:40;6.25;;;3.60;;
28266;SDS011;15525;45.568;5.448;2023-02-19T17:02:06;5.00;;;3.80;;
28266;SDS011;15525;45.568;5.448;2023-02-19T17:04:39;5.32;;;4.05;;
28266;SDS011;15525;45.568;5.448;2023-02-19T17:07:04;4.82;;;3.70;;
28266;SDS011;15525;45.568;5.448;2023-02-19T17:09:30;5.53;;;3.45;;
28266;SDS011;15525;45.568;5.448;2023-02-19T17:11:55;5.43;;;3.90;;
28266;SDS011;15525;45.568;5.448;2023-02-19T17:14:21;7.28;;;4.15;;
28266;SDS011;15525;45.568;5.448;2023-02-19T17:16:46;6.53;;;4.53;;
28266;SDS011;15525;45.568;5.448;2023-02-19T17:19:13;5.05;;;3.70;;